Time;durP1;ratioP1;P1;durP2;ratioP2;P2;SDS_P1;SDS_P2;PMS_P1;PMS_P2;Temp;Humidity;BMP_temperature;BMP_pressure;BME280_temperature;BME280_humidity;BME280_pressure;Samples;Min_cycle;Max_cycle;Signal;HPM_P1;HPM_P2
2021/11/22 00:01:51;;;;;;;3.50;1.67;;;;;;;6.60;88.56;95925.53;5121662;27;20210;-69
2021/11/22 00:04:18;;;;;;;4.13;2.80;;;;;;;6.26;88.81;95924.78;5121794;27;20194;-69
2021/11/22 00:06:44;;;;;;;2.97;2.20;;;;;;;6.30;89.19;95923.50;5120644;27;20763;-69
2021/11/22 00:09:11;;;;;;;3.70;1.80;;;;;;;6.28;88.91;95927.25;5121287;27;20201;-69
2021/11/22 00:11:37;;;;;;;4.50;1.93;;;;;;;6.14;89.49;95933.06;5121424;27;20222;-69
2021/11/22 00:14:04;;;;;;;4.93;2.60;;;;;;;6.08;90.00;95926.69;5121035;27;20198;-69
2021/11/22 00:16:30;;;;;;;4.87;2.00;;;;;;;6.03;90.50;95937.75;5120408;27;20199;-69
2021/11/22 00:18:58;;;;;;;5.93;2.53;;;;;;;6.27;90.88;95930.84;5121662;27;20202;-68
2021/11/22 00:21:25;;;;;;;4.60;2.10;;;;;;;6.15;89.69;95943.38;5121110;27;20214;-69
2021/11/22 00:23:52;;;;;;;5.80;3.20;;;;;;;6.46;89.29;95939.22;5121188;27;20202;-69
2021/11/22 00:26:19;;;;;;;5.00;1.97;;;;;;;6.33;89.97;95935.44;5120572;27;20211;-69
2021/11/22 00:28:46;;;;;;;6.43;3.23;;;;;;;6.41;89.14;95935.47;5121098;27;20229;-69
2021/11/22 00:31:12;;;;;;;4.23;2.23;;;;;;;6.41;89.27;95936.25;5120641;27;20317;-69
2021/11/22 00:33:42;;;;;;;4.63;2.30;;;;;;;6.02;89.88;95941.34;5121896;27;20202;-69
2021/11/22 00:36:10;;;;;;;3.07;2.63;;;;;;;5.86;93.55;95941.28;5120093;27;20920;-69
2021/11/22 00:38:37;;;;;;;3.50;2.23;;;;;;;6.10;91.36;95943.03;5120501;27;20230;-69
2021/11/22 00:41:04;;;;;;;6.20;2.83;;;;;;;6.25;91.00;95941.47;5121346;27;20598;-69
2021/11/22 00:43:30;;;;;;;3.60;2.30;;;;;;;6.39;90.27;95943.47;5120633;27;20213;-69
2021/11/22 00:45:57;;;;;;;6.30;3.17;;;;;;;6.41;89.78;95949.34;5119836;27;20663;-69
2021/11/22 00:48:23;;;;;;;6.23;2.63;;;;;;;6.14;90.74;95949.56;5120644;27;20783;-68
2021/11/22 00:50:51;;;;;;;3.33;1.93;;;;;;;6.01;92.25;95944.94;5120289;27;20222;-69
2021/11/22 00:53:19;;;;;;;7.40;2.37;;;;;;;6.32;91.94;95944.25;5120217;27;21020;-69
2021/11/22 00:55:46;;;;;;;8.60;2.87;;;;;;;6.26;91.32;95953.56;5120290;27;20298;-69
2021/11/22 00:58:13;;;;;;;5.67;2.87;;;;;;;6.32;90.33;95952.09;5120580;27;20194;-69
2021/11/22 01:00:40;;;;;;;2.53;2.03;;;;;;;6.44;90.28;95954.28;5120082;27;20737;-69
2021/11/22 01:03:06;;;;;;;5.83;2.60;;;;;;;6.38;90.31;95952.28;5120550;27;20199;-69
2021/11/22 01:05:33;;;;;;;6.97;2.53;;;;;;;6.50;90.12;95948.41;5120003;27;20195;-69
2021/11/22 01:08:00;;;;;;;7.97;2.77;;;;;;;6.46;90.09;95949.69;5119454;27;21156;-69
2021/11/22 01:10:28;;;;;;;3.63;3.30;;;;;;;6.59;90.11;95947.44;5120195;27;20218;-69
2021/11/22 01:12:55;;;;;;;5.77;3.07;;;;;;;6.44;89.96;95951.66;5119192;27;20203;-69
2021/11/22 01:15:23;;;;;;;4.20;2.57;;;;;;;6.54;90.73;95954.94;5120469;27;20194;-69
2021/11/22 01:17:52;;;;;;;8.73;3.47;;;;;;;6.42;91.32;95944.94;5119636;27;20650;-69
2021/11/22 01:20:21;;;;;;;3.70;1.97;;;;;;;6.52;90.27;95948.22;5120671;27;20215;-69
2021/11/22 01:22:48;;;;;;;5.47;2.63;;;;;;;6.42;90.78;95956.22;5120087;27;20678;-69
2021/11/22 01:25:16;;;;;;;2.97;2.03;;;;;;;6.47;90.42;95955.78;5119767;27;20687;-69
2021/11/22 01:27:43;;;;;;;3.23;2.23;;;;;;;6.73;89.47;95958.13;5119095;27;20222;-69
2021/11/22 01:30:11;;;;;;;8.70;2.30;;;;;;;6.65;89.56;95970.38;5119770;27;20600;-69
2021/11/22 01:32:38;;;;;;;12.00;4.07;;;;;;;6.49;89.63;95978.19;5119386;27;20207;-69
2021/11/22 01:35:06;;;;;;;4.87;2.47;;;;;;;6.42;90.44;95971.94;5119694;27;20205;-69
2021/11/22 01:37:32;;;;;;;6.50;3.67;;;;;;;6.15;91.29;95969.53;5118923;27;20199;-69
2021/11/22 01:39:59;;;;;;;5.60;2.90;;;;;;;6.31;90.18;95963.53;5119687;27;20233;-69
2021/11/22 01:42:26;;;;;;;9.53;3.17;;;;;;;6.40;90.23;95973.06;5119065;27;20206;-69
2021/11/22 01:44:54;;;;;;;3.03;2.07;;;;;;;6.73;89.51;95971.22;5120368;27;20198;-69
2021/11/22 01:47:20;;;;;;;5.70;3.40;;;;;;;6.56;89.01;95965.28;5118742;27;20222;-69
2021/11/22 01:49:47;;;;;;;5.27;2.90;;;;;;;6.55;89.06;95972.31;5119319;27;20222;-69
2021/11/22 01:52:13;;;;;;;4.73;2.27;;;;;;;6.28;89.73;95972.53;5119714;27;20194;-69
2021/11/22 01:54:40;;;;;;;6.63;3.37;;;;;;;6.34;90.04;95982.38;5119959;27;20301;-69
2021/11/22 01:57:07;;;;;;;7.70;3.60;;;;;;;6.53;90.21;95976.88;5118419;27;20643;-69
2021/11/22 01:59:34;;;;;;;9.13;4.33;;;;;;;6.46;89.40;95982.91;5119236;27;20202;-69
2021/11/22 02:02:03;;;;;;;8.80;4.87;;;;;;;6.80;88.85;95984.50;5119076;27;20687;-69
2021/11/22 02:04:30;;;;;;;9.47;4.30;;;;;;;6.33;89.10;95983.34;5119387;27;20199;-69
2021/11/22 02:06:57;;;;;;;4.50;2.00;;;;;;;6.41;90.04;95985.19;5118357;27;20225;-69
2021/11/22 02:09:23;;;;;;;8.93;3.20;;;;;;;6.50;88.83;95989.47;5119146;27;20214;-69
2021/11/22 02:11:50;;;;;;;6.27;3.93;;;;;;;6.67;88.66;95990.19;5118724;27;21137;-69
2021/11/22 02:14:16;;;;;;;15.40;5.47;;;;;;;6.63;88.94;95995.88;5119183;27;20658;-69
2021/11/22 02:16:43;;;;;;;8.37;3.60;;;;;;;6.65;88.90;95994.75;5118063;27;20203;-69
2021/11/22 02:19:11;;;;;;;5.63;3.43;;;;;;;6.78;89.22;96000.38;5118313;27;20209;-69
2021/11/22 02:21:40;;;;;;;5.93;2.60;;;;;;;6.86;88.86;95996.94;5118744;27;20233;-69
2021/11/22 02:24:07;;;;;;;6.37;2.37;;;;;;;6.87;87.71;95999.41;5118748;27;20869;-69
2021/11/22 02:26:34;;;;;;;6.50;3.10;;;;;;;6.82;87.91;96000.84;5117949;27;20749;-69
2021/11/22 02:29:00;;;;;;;5.57;2.80;;;;;;;6.62;88.59;95996.88;5118374;27;20232;-69
2021/11/22 02:31:27;;;;;;;10.33;4.33;;;;;;;6.76;87.78;96007.53;5118405;27;20242;-69
2021/11/22 02:33:54;;;;;;;10.40;4.10;;;;;;;6.80;87.94;96002.81;5118864;27;20202;-69
2021/11/22 02:36:21;;;;;;;12.63;4.00;;;;;;;6.60;88.72;96006.69;5118063;27;20199;-69
2021/11/22 02:38:49;;;;;;;8.00;2.83;;;;;;;6.88;88.43;96000.22;5118708;27;20199;-69
2021/11/22 02:41:16;;;;;;;7.83;3.50;;;;;;;6.58;88.88;96008.66;5118126;27;20218;-69
2021/11/22 02:43:44;;;;;;;7.20;3.80;;;;;;;6.86;88.91;96007.41;5118948;27;20202;-69
2021/11/22 02:46:12;;;;;;;8.53;4.30;;;;;;;6.77;88.47;96008.34;5118020;27;20202;-69
2021/11/22 02:48:39;;;;;;;8.70;3.87;;;;;;;6.71;89.36;96001.97;5117897;27;20230;-69
2021/11/22 02:51:06;;;;;;;5.70;3.33;;;;;;;6.77;88.77;96000.50;5118012;27;20214;-69
2021/11/22 02:53:33;;;;;;;7.37;4.03;;;;;;;6.72;89.48;96006.22;5119637;27;20560;-69
2021/11/22 02:56:06;;;;;;;5.43;3.17;;;;;;;6.91;89.11;96000.72;5117328;27;20203;-69
2021/11/22 02:58:33;;;;;;;6.13;3.33;;;;;;;6.49;89.79;96004.38;5117976;27;20202;-69
2021/11/22 03:01:00;;;;;;;9.20;3.67;;;;;;;6.39;90.06;96008.91;5117708;27;21383;-69
2021/11/22 03:03:28;;;;;;;4.80;2.67;;;;;;;6.82;89.74;96011.31;5118204;27;20972;-69
2021/11/22 03:06:03;;;;;;;12.97;3.40;;;;;;;6.86;89.78;96012.63;5117193;27;20207;-69
2021/11/22 03:08:29;;;;;;;6.07;3.60;;;;;;;6.56;89.66;96018.44;5114252;27;20218;-69
2021/11/22 03:10:56;;;;;;;8.33;4.13;;;;;;;6.51;90.04;96012.84;5117820;27;20234;-69
2021/11/22 03:13:24;;;;;;;7.83;3.93;;;;;;;6.61;90.83;96012.75;5117571;27;20203;-69
2021/11/22 03:15:50;;;;;;;7.73;2.97;;;;;;;6.55;90.43;96016.00;5117022;27;20199;-69
2021/11/22 03:18:17;;;;;;;9.30;4.27;;;;;;;6.64;89.70;96022.91;5117483;27;20202;-69
2021/11/22 03:20:44;;;;;;;7.03;3.00;;;;;;;6.39;91.14;96021.97;5117411;27;20904;-69
2021/11/22 03:23:10;;;;;;;13.60;3.57;;;;;;;6.58;90.05;96034.00;5117486;27;20317;-69
2021/11/22 03:25:37;;;;;;;8.07;4.37;;;;;;;6.42;90.98;96029.50;5117268;27;20206;-69
2021/11/22 03:28:04;;;;;;;12.03;4.57;;;;;;;6.26;91.38;96029.44;5117492;27;20226;-69
2021/11/22 03:30:32;;;;;;;7.00;3.00;;;;;;;6.59;91.73;96019.94;5116611;27;20317;-68
2021/11/22 03:32:59;;;;;;;9.03;3.33;;;;;;;6.40;91.20;96031.47;5117693;27;20259;-69
2021/11/22 03:35:26;;;;;;;7.67;3.40;;;;;;;6.58;91.09;96032.22;5116284;27;20205;-69
2021/11/22 03:37:52;;;;;;;6.53;3.73;;;;;;;6.56;90.68;96035.97;5117338;27;20228;-69
2021/11/22 03:40:19;;;;;;;5.67;2.83;;;;;;;6.32;91.54;96039.25;5117642;27;21136;-69
2021/11/22 03:42:55;;;;;;;5.53;3.03;;;;;;;6.35;91.19;96041.59;5117948;27;20791;-69
2021/11/22 03:45:21;;;;;;;9.00;3.77;;;;;;;6.30;91.51;96041.22;5116747;27;20228;-69
2021/11/22 03:47:49;;;;;;;5.00;2.33;;;;;;;6.61;91.43;96037.13;5117308;27;20222;-69
2021/11/22 03:50:16;;;;;;;4.60;2.53;;;;;;;6.41;91.16;96043.56;5117575;27;20218;-68
2021/11/22 03:52:42;;;;;;;7.23;3.37;;;;;;;6.28;92.07;96050.22;5117452;28;20210;-69
2021/11/22 03:55:09;;;;;;;11.37;3.90;;;;;;;6.25;92.19;96043.50;5117514;28;21000;-69
2021/11/22 03:57:36;;;;;;;4.87;3.17;;;;;;;6.16;92.69;96044.44;5116953;28;20198;-69
2021/11/22 04:00:04;;;;;;;7.70;2.73;;;;;;;6.07;93.41;96049.75;5116685;27;20226;-69
2021/11/22 04:02:30;;;;;;;8.87;3.67;;;;;;;6.12;93.24;96045.72;5116798;28;20292;-69
2021/11/22 04:04:58;;;;;;;5.20;3.20;;;;;;;6.40;93.02;96057.66;5118204;28;20275;-69
2021/11/22 04:07:25;;;;;;;7.13;3.57;;;;;;;6.41;91.92;96056.66;5116742;28;20194;-69
2021/11/22 04:09:53;;;;;;;5.47;3.53;;;;;;;6.65;91.20;96059.38;5116463;28;20229;-69
2021/11/22 04:12:19;;;;;;;5.03;3.13;;;;;;;6.61;91.78;96071.16;5117228;28;20195;-69
2021/11/22 04:14:46;;;;;;;6.30;3.53;;;;;;;6.63;91.19;96063.94;5117551;28;20198;-69
2021/11/22 04:17:12;;;;;;;7.17;3.10;;;;;;;6.63;91.62;96058.72;5116101;28;20218;-69
2021/11/22 04:19:39;;;;;;;9.63;4.13;;;;;;;6.52;91.47;96066.84;5117195;28;20198;-69
2021/11/22 04:22:07;;;;;;;7.07;3.30;;;;;;;6.74;92.34;96067.09;5117186;28;20757;-69
2021/11/22 04:24:34;;;;;;;9.77;3.53;;;;;;;6.58;92.18;96075.88;5117068;28;20201;-69
2021/11/22 04:27:01;;;;;;;10.47;5.20;;;;;;;6.65;91.24;96072.47;5116217;28;20198;-69
2021/11/22 04:29:28;;;;;;;8.17;3.03;;;;;;;6.54;91.69;96074.53;5117165;28;20222;-69
2021/11/22 04:31:55;;;;;;;7.67;3.20;;;;;;;6.46;92.55;96077.94;5117052;28;20202;-69
2021/11/22 04:34:21;;;;;;;8.53;2.93;;;;;;;6.84;91.07;96082.69;5117436;28;20206;-69
2021/11/22 04:36:48;;;;;;;9.77;4.17;;;;;;;6.83;90.70;96081.06;5116217;28;20202;-69
2021/11/22 04:39:16;;;;;;;10.73;5.27;;;;;;;7.12;90.21;96076.25;5116279;28;20199;-69
2021/11/22 04:41:43;;;;;;;7.33;4.07;;;;;;;6.79;91.40;96084.97;5116528;27;20239;-69
2021/11/22 04:44:11;;;;;;;14.97;5.90;;;;;;;6.85;91.66;96089.59;5116728;28;20302;-68
2021/11/22 04:46:37;;;;;;;5.37;3.07;;;;;;;6.65;91.78;96092.59;5118346;27;20203;-69
2021/11/22 04:49:04;;;;;;;7.50;2.90;;;;;;;6.60;92.13;96100.91;5120027;27;20229;-69
2021/11/22 04:51:30;;;;;;;21.93;2.87;;;;;;;6.52;92.81;96103.50;5120695;27;20222;-69
2021/11/22 04:53:57;;;;;;;10.73;3.53;;;;;;;6.65;92.43;96106.50;5120655;27;20920;-69
2021/11/22 04:56:25;;;;;;;12.57;4.67;;;;;;;6.82;92.63;96109.06;5119511;27;20202;-69
2021/11/22 04:58:51;;;;;;;9.93;5.17;;;;;;;6.65;92.57;96109.13;5120825;27;20585;-69
2021/11/22 05:01:18;;;;;;;8.83;3.07;;;;;;;6.60;92.97;96111.38;5120822;27;20214;-69
2021/11/22 05:03:46;;;;;;;10.20;3.97;;;;;;;6.44;93.56;96107.84;5119866;27;20670;-69
2021/11/22 05:06:12;;;;;;;9.27;4.10;;;;;;;6.41;94.08;96114.22;5119628;27;20840;-69
2021/11/22 05:08:39;;;;;;;6.77;3.33;;;;;;;6.40;94.09;96109.16;5120691;27;20222;-69
2021/11/22 05:11:05;;;;;;;6.83;3.37;;;;;;;6.18;94.97;96114.91;5119892;27;20311;-69
2021/11/22 05:13:33;;;;;;;10.83;4.00;;;;;;;6.34;96.41;96110.59;5120035;27;20670;-69
2021/11/22 05:16:00;;;;;;;12.47;3.27;;;;;;;6.00;96.14;96110.69;5120683;27;20202;-69
2021/11/22 05:18:26;;;;;;;10.80;4.37;;;;;;;6.03;97.03;96105.94;5120327;27;20194;-69
2021/11/22 05:20:53;;;;;;;6.13;3.23;;;;;;;6.21;95.52;96112.81;5119966;27;20226;-71
2021/11/22 05:23:19;;;;;;;9.37;3.43;;;;;;;5.99;95.77;96116.88;5120526;27;20194;-69
2021/11/22 05:25:46;;;;;;;8.67;4.37;;;;;;;6.15;96.17;96117.81;5119964;27;20205;-69
2021/11/22 05:28:12;;;;;;;11.23;4.97;;;;;;;6.34;95.01;96118.44;5119593;27;20202;-69
2021/11/22 05:30:41;;;;;;;14.17;3.73;;;;;;;6.64;95.22;96123.19;5120609;27;20230;-69
2021/11/22 05:33:07;;;;;;;3.80;2.80;;;;;;;6.49;94.85;96129.16;5119773;27;20198;-69
2021/11/22 05:35:35;;;;;;;11.27;3.93;;;;;;;6.77;94.17;96123.56;5116794;27;20195;-69
2021/11/22 05:38:03;;;;;;;14.47;4.53;;;;;;;6.58;94.27;96128.22;5119870;27;20587;-69
2021/11/22 05:40:30;;;;;;;11.13;3.73;;;;;;;6.52;94.60;96137.53;5120128;27;20211;-69
2021/11/22 05:42:57;;;;;;;14.80;4.80;;;;;;;6.42;94.75;96139.41;5119698;27;20686;-69
2021/11/22 05:45:24;;;;;;;6.63;3.63;;;;;;;6.39;95.28;96124.03;5119294;27;20557;-69
2021/11/22 05:47:52;;;;;;;7.57;3.63;;;;;;;6.84;94.46;96135.09;5119246;27;20206;-68
2021/11/22 05:50:19;;;;;;;7.00;3.27;;;;;;;6.39;95.68;96139.75;5119226;27;20232;-69
2021/11/22 05:52:50;;;;;;;9.30;3.90;;;;;;;6.61;95.23;96143.63;5119554;27;20202;-69
2021/11/22 05:55:26;;;;;;;9.33;4.60;;;;;;;6.68;94.59;96145.47;5119604;27;20205;-69
2021/11/22 05:57:53;;;;;;;16.60;4.33;;;;;;;6.49;94.95;96150.09;5118228;27;20213;-69
2021/11/22 06:00:20;;;;;;;7.67;3.60;;;;;;;6.43;95.17;96151.53;5119167;27;21134;-69
2021/11/22 06:02:48;;;;;;;11.17;4.30;;;;;;;6.43;95.19;96150.69;5119687;27;20217;-69
2021/11/22 06:05:16;;;;;;;11.00;4.93;;;;;;;6.75;94.98;96151.72;5118669;27;20707;-69
2021/11/22 06:07:43;;;;;;;8.43;3.80;;;;;;;6.46;95.44;96151.22;5118649;27;20213;-69
2021/11/22 06:10:09;;;;;;;6.90;3.63;;;;;;;6.68;94.67;96148.06;5119369;27;20233;-69
2021/11/22 06:12:36;;;;;;;12.90;3.87;;;;;;;6.67;94.50;96155.13;5118763;27;20206;-69
2021/11/22 06:15:03;;;;;;;8.20;3.10;;;;;;;6.52;95.08;96155.00;5119216;27;20202;-69
2021/11/22 06:17:29;;;;;;;7.33;3.03;;;;;;;6.61;95.06;96157.53;5118156;27;20545;-69
2021/11/22 06:19:56;;;;;;;12.03;4.53;;;;;;;6.52;95.03;96165.47;5118973;27;20218;-69
2021/11/22 06:22:24;;;;;;;6.47;2.17;;;;;;;6.91;94.46;96162.28;5119364;27;20717;-69
2021/11/22 06:24:51;;;;;;;11.10;3.77;;;;;;;6.79;93.54;96168.78;5119256;27;20213;-69
2021/11/22 06:27:17;;;;;;;10.07;4.47;;;;;;;6.84;94.46;96169.13;5117564;27;20205;-69
2021/11/22 06:29:44;;;;;;;6.07;3.60;;;;;;;6.78;94.76;96177.59;5118304;27;20226;-70
2021/11/22 06:32:11;;;;;;;11.53;4.00;;;;;;;6.79;94.30;96179.25;5119801;27;20202;-71
2021/11/22 06:34:38;;;;;;;6.97;2.33;;;;;;;6.74;93.98;96191.97;5118876;27;20219;-71
2021/11/22 06:37:05;;;;;;;8.17;4.20;;;;;;;6.80;94.31;96180.88;5117725;27;20206;-71
2021/11/22 06:39:33;;;;;;;4.30;1.77;;;;;;;7.08;94.52;96190.22;5119141;27;20202;-69
2021/11/22 06:42:00;;;;;;;6.70;4.10;;;;;;;6.62;94.84;96193.22;5118952;27;20202;-69
2021/11/22 06:44:26;;;;;;;9.63;4.53;;;;;;;6.74;94.60;96191.97;5117968;27;20201;-71
2021/11/22 06:46:53;;;;;;;6.77;2.57;;;;;;;6.67;95.07;96196.19;5117841;27;20206;-69
2021/11/22 06:49:19;;;;;;;6.73;3.63;;;;;;;6.67;95.32;96196.19;5118353;27;20607;-69
2021/11/22 06:51:46;;;;;;;3.13;2.23;;;;;;;6.76;94.41;96208.38;5118198;27;20233;-69
2021/11/22 06:54:13;;;;;;;9.37;3.93;;;;;;;6.91;94.17;96212.88;5118576;27;20199;-69
2021/11/22 06:56:41;;;;;;;12.07;4.27;;;;;;;7.14;94.27;96215.75;5117655;27;20210;-69
2021/11/22 06:59:07;;;;;;;6.07;3.03;;;;;;;6.83;95.08;96222.47;5117935;27;20194;-70
2021/11/22 07:01:34;;;;;;;7.07;2.67;;;;;;;6.90;94.23;96224.31;5118040;27;20222;-70
2021/11/22 07:04:00;;;;;;;10.23;3.57;;;;;;;6.91;94.12;96225.13;5118271;27;20214;-70
2021/11/22 07:06:27;;;;;;;5.03;2.27;;;;;;;6.85;94.82;96223.97;5117177;27;20569;-70
2021/11/22 07:08:53;;;;;;;3.87;1.93;;;;;;;6.84;94.76;96226.75;5117617;27;20226;-70
2021/11/22 07:11:20;;;;;;;8.17;2.70;;;;;;;6.85;95.60;96228.38;5117639;27;20214;-70
2021/11/22 07:13:50;;;;;;;8.13;2.77;;;;;;;6.84;96.12;96224.13;5117885;27;21008;-70
2021/11/22 07:16:16;;;;;;;5.93;3.13;;;;;;;6.73;95.92;96242.69;5118055;27;20349;-70
2021/11/22 07:18:42;;;;;;;10.03;2.63;;;;;;;6.81;95.46;96237.50;5117514;27;20698;-70
2021/11/22 07:21:09;;;;;;;7.60;3.50;;;;;;;6.63;96.12;96241.97;5117464;27;20237;-70
2021/11/22 07:23:36;;;;;;;9.40;3.73;;;;;;;6.75;96.77;96246.00;5118285;27;20191;-70
2021/11/22 07:26:04;;;;;;;13.90;4.40;;;;;;;6.81;96.13;96250.59;5116634;27;20238;-70
2021/11/22 07:28:31;;;;;;;5.07;2.63;;;;;;;6.95;95.61;96252.66;5117075;27;20198;-70
2021/11/22 07:30:59;;;;;;;7.53;2.40;;;;;;;7.14;95.13;96258.53;5117572;27;20241;-70
2021/11/22 07:33:26;;;;;;;5.00;2.53;;;;;;;6.64;96.69;96267.19;5117159;27;20230;-70
2021/11/22 07:35:52;;;;;;;8.83;2.63;;;;;;;6.73;95.83;96263.66;5117056;27;20202;-70
2021/11/22 07:38:19;;;;;;;7.50;2.27;;;;;;;6.75;96.52;96270.38;5117189;27;20198;-70
2021/11/22 07:40:46;;;;;;;5.10;1.27;;;;;;;6.74;96.71;96266.09;5117651;27;20730;-70
2021/11/22 07:43:14;;;;;;;5.77;3.40;;;;;;;7.05;95.44;96274.34;5117629;27;20209;-70
2021/11/22 07:45:41;;;;;;;7.43;3.33;;;;;;;7.22;94.64;96271.66;5116312;27;20229;-70
2021/11/22 07:48:09;;;;;;;6.80;3.37;;;;;;;7.25;94.98;96276.59;5115665;27;20205;-70
2021/11/22 07:50:36;;;;;;;6.70;2.17;;;;;;;6.88;95.58;96280.44;5116984;27;20225;-69
2021/11/22 07:53:03;;;;;;;7.00;3.10;;;;;;;6.95;95.19;96284.94;5116065;27;20726;-70
2021/11/22 07:55:29;;;;;;;6.83;3.30;;;;;;;7.09;94.26;96283.53;5116841;28;20604;-69
2021/11/22 07:57:56;;;;;;;7.17;2.77;;;;;;;6.86;95.81;96295.47;5117301;28;20203;-70
2021/11/22 08:00:25;;;;;;;4.77;2.80;;;;;;;7.22;95.81;96291.78;5117185;28;20321;-71
2021/11/22 08:02:52;;;;;;;4.67;2.57;;;;;;;7.24;94.35;96295.91;5116776;28;21087;-70
2021/11/22 08:05:22;;;;;;;5.93;2.60;;;;;;;7.42;94.92;96294.03;5116416;28;20205;-71
2021/11/22 08:07:50;;;;;;;12.63;2.93;;;;;;;7.34;94.00;96302.69;5116158;27;20619;-70
2021/11/22 08:10:25;;;;;;;5.87;3.20;;;;;;;7.25;94.47;96302.78;5116634;27;20232;-71
2021/11/22 08:12:52;;;;;;;5.40;2.53;;;;;;;7.17;95.37;96301.94;5116768;28;20200;-70
2021/11/22 08:15:20;;;;;;;4.77;2.43;;;;;;;7.47;94.93;96300.47;5115163;28;20288;-71
2021/11/22 08:17:47;;;;;;;3.57;2.10;;;;;;;7.45;94.28;96297.16;5115045;27;20205;-71
2021/11/22 08:20:16;;;;;;;9.07;3.07;;;;;;;7.92;100.00;96301.78;5116598;27;20429;-70
2021/11/22 08:22:45;;;;;;;3.10;1.80;;;;;;;8.87;96.05;96306.41;5119832;27;20440;-70
2021/11/22 08:25:13;;;;;;;7.77;4.30;;;;;;;8.46;90.71;96300.47;5120717;27;20611;-71
2021/11/22 08:27:40;;;;;;;8.63;3.77;;;;;;;8.24;91.01;96309.78;5119921;27;20202;-73
2021/11/22 08:30:09;;;;;;;3.77;2.13;;;;;;;7.85;92.42;96313.06;5120235;27;20724;-70
2021/11/22 08:32:36;;;;;;;4.50;2.13;;;;;;;7.74;92.85;96326.47;5120356;27;20226;-70
2021/11/22 08:35:04;;;;;;;5.57;2.23;;;;;;;7.78;92.93;96327.81;5120467;27;20291;-70
2021/11/22 08:37:31;;;;;;;5.70;2.73;;;;;;;7.61;93.73;96331.34;5120272;27;21145;-70
2021/11/22 08:39:59;;;;;;;5.27;2.17;;;;;;;7.61;94.78;96336.59;5119372;27;20218;-69
2021/11/22 08:42:26;;;;;;;4.27;2.17;;;;;;;7.01;96.64;96344.53;5119997;27;20210;-70
2021/11/22 08:44:53;;;;;;;2.90;1.80;;;;;;;7.19;96.65;96345.31;5119558;27;20191;-70
2021/11/22 08:47:20;;;;;;;5.07;2.33;;;;;;;7.28;94.94;96350.47;5119316;27;20209;-70
2021/11/22 08:49:46;;;;;;;2.43;1.50;;;;;;;7.39;94.64;96359.88;5119800;27;21682;-70
2021/11/22 08:52:13;;;;;;;2.13;1.70;;;;;;;7.26;95.66;96356.03;5120189;27;20568;-70
2021/11/22 08:54:40;;;;;;;6.37;2.43;;;;;;;7.14;96.86;96362.50;5119485;27;20675;-69
2021/11/22 08:57:09;;;;;;;3.83;1.63;;;;;;;7.55;96.57;96354.75;5117739;27;20198;-70
2021/11/22 09:02:05;;;;;;;5.63;2.30;;;;;;;7.74;96.02;96362.34;5056702;27;20586;-71
2021/11/22 09:04:31;;;;;;;3.07;2.00;;;;;;;7.38;96.56;96366.09;5053211;28;20674;-70
2021/11/22 09:06:58;;;;;;;3.47;2.30;;;;;;;7.45;95.52;96375.81;5050785;28;20211;-70
2021/11/22 09:09:25;;;;;;;3.30;2.57;;;;;;;7.53;95.50;96365.38;5052596;28;20296;-70
2021/11/22 09:11:52;;;;;;;3.17;2.23;;;;;;;7.40;96.22;96369.41;5033160;28;20216;-70
2021/11/22 09:14:19;;;;;;;2.87;1.93;;;;;;;7.52;95.78;96381.25;5032021;28;20209;-70
2021/11/22 09:16:45;;;;;;;5.20;3.77;;;;;;;7.21;97.53;96380.06;5030659;28;20315;-70
2021/11/22 09:19:14;;;;;;;7.10;3.20;;;;;;;7.40;97.89;96383.31;5031722;28;20225;-70
2021/11/22 09:21:41;;;;;;;5.50;2.23;;;;;;;7.10;98.86;96388.16;5032013;28;20343;-70
2021/11/22 09:24:08;;;;;;;4.97;1.93;;;;;;;7.24;98.86;96399.91;5033284;28;20227;-70
2021/11/22 09:26:35;;;;;;;6.67;1.73;;;;;;;7.10;98.55;96403.09;5032722;28;20205;-70
2021/11/22 09:29:03;;;;;;;3.47;2.13;;;;;;;7.38;97.96;96408.88;5032449;28;20700;-70
2021/11/22 09:31:30;;;;;;;4.40;1.63;;;;;;;7.54;96.97;96408.97;5032566;28;20213;-70
2021/11/22 09:33:57;;;;;;;1.80;1.70;;;;;;;7.46;97.63;96411.53;5033702;28;20224;-70
2021/11/22 09:36:26;;;;;;;3.33;2.13;;;;;;;7.36;98.34;96408.19;5031411;28;20216;-70
2021/11/22 09:38:53;;;;;;;4.67;2.13;;;;;;;7.32;99.14;96414.72;5032449;28;20569;-70
2021/11/22 09:41:20;;;;;;;3.67;2.43;;;;;;;7.17;99.27;96420.66;5033466;28;20221;-70
2021/11/22 09:43:48;;;;;;;5.87;2.13;;;;;;;7.40;99.46;96416.59;5032225;28;20205;-70
2021/11/22 09:46:15;;;;;;;1.80;1.07;;;;;;;7.39;99.04;96417.56;5031508;28;20690;-70
2021/11/22 09:48:42;;;;;;;2.47;2.23;;;;;;;7.62;98.24;96419.50;5033326;28;20208;-70
2021/11/22 09:51:11;;;;;;;2.63;1.80;;;;;;;7.20;99.58;96414.31;5032194;28;20221;-70
2021/11/22 09:53:40;;;;;;;1.57;1.40;;;;;;;7.70;99.49;96416.09;5032581;28;20209;-70
2021/11/22 09:56:07;;;;;;;4.50;2.20;;;;;;;7.49;99.86;96421.72;5031523;28;20379;-70
2021/11/22 09:58:33;;;;;;;13.77;2.83;;;;;;;7.64;98.83;96414.94;5033055;28;20205;-70
2021/11/22 10:01:05;;;;;;;3.20;1.70;;;;;;;8.01;97.90;96418.91;5028531;28;20229;-70
2021/11/22 10:03:32;;;;;;;4.07;2.10;;;;;;;7.73;98.95;96421.06;5032014;28;20204;-70
2021/11/22 10:06:00;;;;;;;4.27;1.70;;;;;;;7.85;98.56;96419.81;5031152;28;20217;-70
2021/11/22 10:08:27;;;;;;;3.33;2.30;;;;;;;7.79;99.22;96413.41;5031905;28;20589;-70
2021/11/22 10:10:57;;;;;;;6.10;3.20;;;;;;;8.02;98.44;96419.75;5031882;28;20236;-70
2021/11/22 10:13:30;;;;;;;1.43;1.33;;;;;;;8.20;97.18;96408.19;5019163;28;21144;-70
2021/11/22 10:16:00;;;;;;;2.73;2.03;;;;;;;8.25;96.86;96410.34;5018089;28;20213;-70
2021/11/22 10:18:29;;;;;;;4.57;2.93;;;;;;;7.86;98.91;96413.59;5018324;28;20201;-70
2021/11/22 10:21:02;;;;;;;2.63;1.63;;;;;;;7.60;100.00;96418.84;5017501;28;20221;-70
2021/11/22 10:23:29;;;;;;;1.60;1.30;;;;;;;8.04;100.00;96412.53;5018399;28;20205;-70
2021/11/22 10:25:59;;;;;;;2.37;1.67;;;;;;;8.03;98.77;96416.13;5018336;28;20594;-70
2021/11/22 10:28:27;;;;;;;3.07;2.37;;;;;;;8.17;99.12;96408.53;5018260;28;20217;-70
2021/11/22 10:30:56;;;;;;;4.40;1.97;;;;;;;8.14;98.79;96411.44;5018729;28;20226;-70
2021/11/22 10:33:26;;;;;;;3.03;1.87;;;;;;;7.97;99.69;96417.56;5017975;28;20209;-70
2021/11/22 10:35:55;;;;;;;3.40;1.37;;;;;;;7.76;99.48;96416.31;5017954;28;20221;-70
2021/11/22 10:38:24;;;;;;;3.40;1.53;;;;;;;7.91;98.49;96414.75;5018633;28;20198;-70
2021/11/22 10:40:53;;;;;;;5.50;2.77;;;;;;;7.74;100.00;96412.19;5018255;28;20260;-70
2021/11/22 10:43:21;;;;;;;1.33;1.17;;;;;;;7.81;100.00;96410.63;5018361;28;20206;-70
2021/11/22 10:45:51;;;;;;;5.40;3.13;;;;;;;7.84;100.00;96407.66;5017777;28;20593;-70
2021/11/22 10:48:22;;;;;;;2.33;1.60;;;;;;;7.86;98.96;96413.59;5016228;28;20209;-70
2021/11/22 10:50:53;;;;;;;2.07;1.87;;;;;;;7.77;100.00;96417.16;5018194;28;20228;-70
2021/11/22 10:53:36;;;;;;;2.93;2.03;;;;;;;8.12;99.24;96409.94;5018396;28;20202;-70
2021/11/22 10:56:05;;;;;;;1.87;1.53;;;;;;;7.81;99.99;96413.22;5017482;28;21194;-70
2021/11/22 10:58:53;;;;;;;3.20;1.50;;;;;;;7.94;99.76;96412.66;5017686;28;20308;-69
2021/11/22 11:01:36;;;;;;;3.80;1.97;;;;;;;8.19;98.75;96410.97;5015639;28;20229;-70
2021/11/22 11:04:07;;;;;;;7.67;2.63;;;;;;;8.04;99.65;96416.00;5014799;28;20696;-70
2021/11/22 11:06:40;;;;;;;4.60;2.40;;;;;;;8.17;98.85;96418.19;5015932;28;20206;-69
2021/11/22 11:09:08;;;;;;;3.17;1.37;;;;;;;7.98;98.67;96415.75;5015211;28;20821;-70
2021/11/22 11:11:35;;;;;;;1.43;1.33;;;;;;;7.75;100.00;96417.31;5016842;28;20233;-70
2021/11/22 11:14:07;;;;;;;5.73;2.67;;;;;;;7.93;100.00;96420.69;5015276;28;20198;-70
2021/11/22 11:16:35;;;;;;;1.90;1.53;;;;;;;7.73;100.00;96424.50;5015544;28;20206;-70
2021/11/22 11:19:04;;;;;;;3.10;2.33;;;;;;;8.03;100.00;96429.25;5016564;28;20216;-70
2021/11/22 11:21:32;;;;;;;2.93;1.57;;;;;;;7.92;100.00;96424.28;5016704;28;20233;-69
2021/11/22 11:24:00;;;;;;;2.57;1.60;;;;;;;7.82;100.00;96423.56;5015799;28;20217;-69
2021/11/22 11:26:28;;;;;;;4.20;2.87;;;;;;;7.60;100.00;96429.34;5016239;28;20198;-70
2021/11/22 11:28:55;;;;;;;1.87;1.67;;;;;;;7.66;100.00;96433.13;5016901;28;20210;-69
2021/11/22 11:31:25;;;;;;;2.73;1.80;;;;;;;8.10;100.00;96430.28;5017626;28;20309;-70
2021/11/22 11:33:53;;;;;;;3.23;1.83;;;;;;;7.60;100.00;96436.38;5017238;28;20201;-70
2021/11/22 11:36:45;;;;;;;1.87;1.67;;;;;;;8.14;99.05;96437.69;5015952;28;20202;-70
2021/11/22 11:39:27;;;;;;;3.93;2.63;;;;;;;8.18;99.33;96432.97;5015998;28;20249;-70
2021/11/22 11:42:02;;;;;;;3.87;1.70;;;;;;;8.17;99.89;96439.19;5016901;28;20226;-70
2021/11/22 11:44:42;;;;;;;5.50;2.23;;;;;;;7.99;99.31;96439.25;5016832;28;20205;-70